sensor_id;sensor_type;location;lat;lon;timestamp;pressure;altitude;pressure_sealevel;temperature;humidity
28354;BME280;15603;50.878;8.036;2023-02-21T00:00:39;145081.25;;;7.69;100.00
28354;BME280;15603;50.878;8.036;2023-02-21T00:03:25;145080.06;;;7.69;100.00
28354;BME280;15603;50.878;8.036;2023-02-21T00:06:10;145075.22;;;7.66;100.00
28354;BME280;15603;50.878;8.036;2023-02-21T00:08:56;145072.75;;;7.65;100.00
28354;BME280;15603;50.878;8.036;2023-02-21T00:11:43;144997.59;;;7.34;100.00
28354;BME280;15603;50.878;8.036;2023-02-21T00:14:29;145075.22;;;7.66;100.00
28354;BME280;15603;50.878;8.036;2023-02-21T00:17:14;145109.16;;;7.81;100.00
28354;BME280;15603;50.878;8.036;2023-02-21T00:20:00;145121.31;;;7.86;100.00
28354;BME280;15603;50.878;8.036;2023-02-21T00:22:46;145038.81;;;7.51;100.00
28354;BME280;15603;50.878;8.036;2023-02-21T00:25:31;145060.66;;;7.60;100.00
28354;BME280;15603;50.878;8.036;2023-02-21T00:28:17;145048.53;;;7.55;100.00
28354;BME280;15603;50.878;8.036;2023-02-21T00:31:04;144990.31;;;7.31;100.00
28354;BME280;15603;50.878;8.036;2023-02-21T00:33:50;145106.75;;;7.80;100.00
28354;BME280;15603;50.878;8.036;2023-02-21T00:36:36;144936.94;;;7.08;100.00
28354;BME280;15603;50.878;8.036;2023-02-21T00:39:22;145104.31;;;7.79;100.00
28354;BME280;15603;50.878;8.036;2023-02-21T00:42:07;145083.72;;;7.70;100.00
28354;BME280;15603;50.878;8.036;2023-02-21T00:44:53;145092.22;;;7.74;100.00
28354;BME280;15603;50.878;8.036;2023-02-21T00:47:39;145065.50;;;7.62;100.00
28354;BME280;15603;50.878;8.036;2023-02-21T00:50:24;145061.88;;;7.61;100.00
28354;BME280;15603;50.878;8.036;2023-02-21T00:53:10;145107.97;;;7.80;100.00
28354;BME280;15603;50.878;8.036;2023-02-21T00:55:56;145053.38;;;7.57;100.00
28354;BME280;15603;50.878;8.036;2023-02-21T00:58:42;145065.50;;;7.62;100.00
28354;BME280;15603;50.878;8.036;2023-02-21T01:01:28;145121.31;;;7.86;100.00
28354;BME280;15603;50.878;8.036;2023-02-21T01:04:13;145076.41;;;7.67;100.00
28354;BME280;15603;50.878;8.036;2023-02-21T01:06:59;145064.28;;;7.62;100.00
28354;BME280;15603;50.878;8.036;2023-02-21T01:09:45;145094.59;;;7.75;100.00
28354;BME280;15603;50.878;8.036;2023-02-21T01:12:31;145124.94;;;7.88;100.00
28354;BME280;15603;50.878;8.036;2023-02-21T01:15:16;145123.69;;;7.87;100.00
28354;BME280;15603;50.878;8.036;2023-02-21T01:18:02;145089.75;;;7.73;100.00
28354;BME280;15603;50.878;8.036;2023-02-21T01:20:48;145035.19;;;7.50;100.00
28354;BME280;15603;50.878;8.036;2023-02-21T01:23:34;145054.56;;;7.58;100.00
28354;BME280;15603;50.878;8.036;2023-02-21T01:26:20;145059.41;;;7.60;100.00
28354;BME280;15603;50.878;8.036;2023-02-21T01:29:06;145002.44;;;7.36;100.00
28354;BME280;15603;50.878;8.036;2023-02-21T01:31:52;144889.69;;;6.88;100.00
28354;BME280;15603;50.878;8.036;2023-02-21T01:34:38;145036.38;;;7.50;100.00
28354;BME280;15603;50.878;8.036;2023-02-21T01:37:24;145054.56;;;7.58;100.00
28354;BME280;15603;50.878;8.036;2023-02-21T01:40:14;145031.53;;;7.48;100.00
28354;BME280;15603;50.878;8.036;2023-02-21T01:43:01;144934.53;;;7.07;100.00
28354;BME280;15603;50.878;8.036;2023-02-21T01:45:49;145087.31;;;7.72;100.00
28354;BME280;15603;50.878;8.036;2023-02-21T01:48:35;145081.25;;;7.69;100.00
28354;BME280;15603;50.878;8.036;2023-02-21T01:51:27;145075.22;;;7.66;100.00
28354;BME280;15603;50.878;8.036;2023-02-21T01:54:16;145082.47;;;7.70;100.00
28354;BME280;15603;50.878;8.036;2023-02-21T01:57:05;145090.97;;;7.73;100.00
28354;BME280;15603;50.878;8.036;2023-02-21T01:59:54;145032.72;;;7.48;100.00
28354;BME280;15603;50.878;8.036;2023-02-21T02:02:59;145095.81;;;7.75;100.00
28354;BME280;15603;50.878;8.036;2023-02-21T02:05:58;145050.94;;;7.56;100.00
28354;BME280;15603;50.878;8.036;2023-02-21T02:08:45;145060.66;;;7.60;100.00
28354;BME280;15603;50.878;8.036;2023-02-21T02:20:21;145082.47;;;7.70;100.00
28354;BME280;15603;50.878;8.036;2023-02-21T02:25:37;145086.13;;;7.71;100.00
28354;BME280;15603;50.878;8.036;2023-02-21T02:28:25;145063.06;;;7.61;100.00
28354;BME280;15603;50.878;8.036;2023-02-21T02:34:23;145082.47;;;7.70;100.00
28354;BME280;15603;50.878;8.036;2023-02-21T02:39:52;144996.34;;;7.33;100.00
28354;BME280;15603;50.878;8.036;2023-02-21T02:42:37;145106.75;;;7.80;100.00
28354;BME280;15603;50.878;8.036;2023-02-21T02:45:27;145092.22;;;7.74;100.00
28354;BME280;15603;50.878;8.036;2023-02-21T02:48:06;145077.63;;;7.67;100.00
28354;BME280;15603;50.878;8.036;2023-02-21T02:50:36;145048.53;;;7.55;100.00
28354;BME280;15603;50.878;8.036;2023-02-21T02:53:05;145067.91;;;7.63;100.00
28354;BME280;15603;50.878;8.036;2023-02-21T02:55:38;145054.56;;;7.58;100.00
28354;BME280;15603;50.878;8.036;2023-02-21T02:58:09;144929.69;;;7.05;100.00
28354;BME280;15603;50.878;8.036;2023-02-21T03:00:39;145083.72;;;7.70;100.00
28354;BME280;15603;50.878;8.036;2023-02-21T03:08:50;145084.91;;;7.71;100.00
28354;BME280;15603;50.878;8.036;2023-02-21T03:11:21;145082.47;;;7.70;100.00
28354;BME280;15603;50.878;8.036;2023-02-21T03:13:59;145083.72;;;7.70;100.00
28354;BME280;15603;50.878;8.036;2023-02-21T03:16:38;145116.44;;;7.84;100.00
28354;BME280;15603;50.878;8.036;2023-02-21T03:19:16;145112.81;;;7.82;100.00
28354;BME280;15603;50.878;8.036;2023-02-21T03:22:08;145070.38;;;7.64;100.00
28354;BME280;15603;50.878;8.036;2023-02-21T03:24:38;145072.75;;;7.65;100.00
28354;BME280;15603;50.878;8.036;2023-02-21T03:27:07;145065.50;;;7.62;100.00
28354;BME280;15603;50.878;8.036;2023-02-21T03:29:57;145063.06;;;7.61;100.00
28354;BME280;15603;50.878;8.036;2023-02-21T03:32:38;144958.78;;;7.17;100.00
28354;BME280;15603;50.878;8.036;2023-02-21T03:35:06;145058.22;;;7.59;100.00
28354;BME280;15603;50.878;8.036;2023-02-21T03:37:48;145061.88;;;7.61;100.00
28354;BME280;15603;50.878;8.036;2023-02-21T03:40:20;145043.69;;;7.53;100.00
28354;BME280;15603;50.878;8.036;2023-02-21T03:42:52;145084.91;;;7.71;100.00
28354;BME280;15603;50.878;8.036;2023-02-21T03:45:20;145053.38;;;7.57;100.00
28354;BME280;15603;50.878;8.036;2023-02-21T03:48:03;144990.31;;;7.31;100.00
28354;BME280;15603;50.878;8.036;2023-02-21T03:50:32;145002.44;;;7.36;100.00
28354;BME280;15603;50.878;8.036;2023-02-21T03:53:00;145072.75;;;7.65;100.00
28354;BME280;15603;50.878;8.036;2023-02-21T03:55:28;145063.06;;;7.61;100.00
28354;BME280;15603;50.878;8.036;2023-02-21T03:57:56;145067.91;;;7.63;100.00
28354;BME280;15603;50.878;8.036;2023-02-21T04:00:23;145083.72;;;7.70;100.00
28354;BME280;15603;50.878;8.036;2023-02-21T04:02:53;145084.91;;;7.71;100.00
28354;BME280;15603;50.878;8.036;2023-02-21T04:05:47;145029.13;;;7.47;100.00
28354;BME280;15603;50.878;8.036;2023-02-21T04:08:14;145037.63;;;7.51;100.00
28354;BME280;15603;50.878;8.036;2023-02-21T04:10:41;145077.63;;;7.67;100.00
28354;BME280;15603;50.878;8.036;2023-02-21T04:13:20;144955.13;;;7.16;100.00
28354;BME280;15603;50.878;8.036;2023-02-21T04:15:49;145063.06;;;7.61;100.00
28354;BME280;15603;50.878;8.036;2023-02-21T04:18:16;145082.47;;;7.70;100.00
28354;BME280;15603;50.878;8.036;2023-02-21T04:20:46;145007.28;;;7.38;100.00
28354;BME280;15603;50.878;8.036;2023-02-21T04:23:18;145054.56;;;7.58;100.00
28354;BME280;15603;50.878;8.036;2023-02-21T04:25:47;145046.06;;;7.54;100.00
28354;BME280;15603;50.878;8.036;2023-02-21T04:28:20;145053.38;;;7.57;100.00
28354;BME280;15603;50.878;8.036;2023-02-21T04:30:48;145038.81;;;7.51;100.00
28354;BME280;15603;50.878;8.036;2023-02-21T04:33:15;145041.22;;;7.52;100.00
28354;BME280;15603;50.878;8.036;2023-02-21T04:35:44;145042.47;;;7.53;100.00
28354;BME280;15603;50.878;8.036;2023-02-21T04:38:21;145076.41;;;7.67;100.00
28354;BME280;15603;50.878;8.036;2023-02-21T04:40:48;145055.81;;;7.58;100.00
28354;BME280;15603;50.878;8.036;2023-02-21T04:43:15;144922.41;;;7.02;100.00
28354;BME280;15603;50.878;8.036;2023-02-21T04:45:43;145038.81;;;7.51;100.00
28354;BME280;15603;50.878;8.036;2023-02-21T04:48:10;145043.69;;;7.53;100.00
28354;BME280;15603;50.878;8.036;2023-02-21T04:50:37;144929.69;;;7.05;100.00
28354;BME280;15603;50.878;8.036;2023-02-21T04:53:04;145057.03;;;7.59;100.00
28354;BME280;15603;50.878;8.036;2023-02-21T04:55:31;145031.53;;;7.48;100.00
28354;BME280;15603;50.878;8.036;2023-02-21T04:57:58;145075.22;;;7.66;100.00
28354;BME280;15603;50.878;8.036;2023-02-21T05:00:25;145023.03;;;7.44;100.00
28354;BME280;15603;50.878;8.036;2023-02-21T05:02:52;144953.94;;;7.15;100.00
28354;BME280;15603;50.878;8.036;2023-02-21T05:05:20;145064.28;;;7.62;100.00
28354;BME280;15603;50.878;8.036;2023-02-21T05:07:47;144990.31;;;7.31;100.00
28354;BME280;15603;50.878;8.036;2023-02-21T05:10:15;145058.22;;;7.59;100.00
28354;BME280;15603;50.878;8.036;2023-02-21T05:12:43;144995.16;;;7.33;100.00
28354;BME280;15603;50.878;8.036;2023-02-21T05:15:11;145042.47;;;7.53;100.00
28354;BME280;15603;50.878;8.036;2023-02-21T05:17:39;145052.16;;;7.57;100.00
28354;BME280;15603;50.878;8.036;2023-02-21T05:20:07;145077.63;;;7.67;100.00
28354;BME280;15603;50.878;8.036;2023-02-21T05:22:38;145065.50;;;7.62;100.00
28354;BME280;15603;50.878;8.036;2023-02-21T05:25:24;145057.03;;;7.59;100.00
28354;BME280;15603;50.878;8.036;2023-02-21T05:27:52;145052.16;;;7.57;100.00
28354;BME280;15603;50.878;8.036;2023-02-21T05:30:21;145046.06;;;7.54;100.00
28354;BME280;15603;50.878;8.036;2023-02-21T05:32:50;145029.13;;;7.47;100.00
28354;BME280;15603;50.878;8.036;2023-02-21T05:35:17;145025.47;;;7.45;100.00
28354;BME280;15603;50.878;8.036;2023-02-21T05:37:44;145048.53;;;7.55;100.00
28354;BME280;15603;50.878;8.036;2023-02-21T05:40:11;145047.31;;;7.55;100.00
28354;BME280;15603;50.878;8.036;2023-02-21T05:42:39;145043.69;;;7.53;100.00
28354;BME280;15603;50.878;8.036;2023-02-21T05:45:06;144950.28;;;7.14;100.00
28354;BME280;15603;50.878;8.036;2023-02-21T05:47:33;145017.00;;;7.42;100.00
28354;BME280;15603;50.878;8.036;2023-02-21T05:50:02;145031.53;;;7.48;100.00
28354;BME280;15603;50.878;8.036;2023-02-21T05:52:29;145033.97;;;7.49;100.00
28354;BME280;15603;50.878;8.036;2023-02-21T05:54:57;145049.72;;;7.56;100.00
28354;BME280;15603;50.878;8.036;2023-02-21T05:57:24;145043.69;;;7.53;100.00
28354;BME280;15603;50.878;8.036;2023-02-21T05:59:51;144985.47;;;7.28;100.00
28354;BME280;15603;50.878;8.036;2023-02-21T06:02:18;144987.91;;;7.30;100.00
28354;BME280;15603;50.878;8.036;2023-02-21T06:04:45;145026.69;;;7.46;100.00
28354;BME280;15603;50.878;8.036;2023-02-21T06:07:12;145031.53;;;7.48;100.00
28354;BME280;15603;50.878;8.036;2023-02-21T06:09:39;145038.81;;;7.51;100.00
28354;BME280;15603;50.878;8.036;2023-02-21T06:12:06;145038.81;;;7.51;100.00
28354;BME280;15603;50.878;8.036;2023-02-21T06:14:33;145021.84;;;7.44;100.00
28354;BME280;15603;50.878;8.036;2023-02-21T06:17:00;144980.59;;;7.26;100.00
28354;BME280;15603;50.878;8.036;2023-02-21T06:19:28;145021.84;;;7.44;100.00
28354;BME280;15603;50.878;8.036;2023-02-21T06:21:57;145064.28;;;7.62;100.00
28354;BME280;15603;50.878;8.036;2023-02-21T06:24:24;145015.78;;;7.41;100.00
28354;BME280;15603;50.878;8.036;2023-02-21T06:26:51;144970.91;;;7.22;100.00
28354;BME280;15603;50.878;8.036;2023-02-21T06:29:18;145029.13;;;7.47;100.00
28354;BME280;15603;50.878;8.036;2023-02-21T06:31:45;145021.84;;;7.44;100.00
28354;BME280;15603;50.878;8.036;2023-02-21T06:34:12;145024.28;;;7.45;100.00
28354;BME280;15603;50.878;8.036;2023-02-21T06:36:39;145027.88;;;7.46;100.00
28354;BME280;15603;50.878;8.036;2023-02-21T06:39:09;145032.72;;;7.48;100.00
28354;BME280;15603;50.878;8.036;2023-02-21T06:41:36;145038.81;;;7.51;100.00
28354;BME280;15603;50.878;8.036;2023-02-21T06:44:03;145024.28;;;7.45;100.00
28354;BME280;15603;50.878;8.036;2023-02-21T06:46:30;145032.72;;;7.48;100.00
28354;BME280;15603;50.878;8.036;2023-02-21T06:48:58;145060.66;;;7.60;100.00
28354;BME280;15603;50.878;8.036;2023-02-21T06:51:25;145048.53;;;7.55;100.00
28354;BME280;15603;50.878;8.036;2023-02-21T06:53:56;145050.94;;;7.56;100.00
28354;BME280;15603;50.878;8.036;2023-02-21T06:56:23;145014.53;;;7.41;100.00
28354;BME280;15603;50.878;8.036;2023-02-21T06:58:51;145065.50;;;7.62;100.00
28354;BME280;15603;50.878;8.036;2023-02-21T07:01:18;145050.94;;;7.56;100.00
28354;BME280;15603;50.878;8.036;2023-02-21T07:03:46;145026.69;;;7.46;100.00
28354;BME280;15603;50.878;8.036;2023-02-21T07:06:13;145070.38;;;7.64;100.00
28354;BME280;15603;50.878;8.036;2023-02-21T07:08:40;145060.66;;;7.60;100.00
28354;BME280;15603;50.878;8.036;2023-02-21T07:11:07;145060.66;;;7.60;100.00
28354;BME280;15603;50.878;8.036;2023-02-21T07:13:35;144976.97;;;7.25;100.00
28354;BME280;15603;50.878;8.036;2023-02-21T07:16:03;145064.28;;;7.62;100.00
28354;BME280;15603;50.878;8.036;2023-02-21T07:18:30;145099.47;;;7.77;100.00
28354;BME280;15603;50.878;8.036;2023-02-21T07:20:58;145118.84;;;7.85;100.00
28354;BME280;15603;50.878;8.036;2023-02-21T07:23:25;145106.75;;;7.80;100.00
28354;BME280;15603;50.878;8.036;2023-02-21T07:25:52;145107.97;;;7.80;100.00
28354;BME280;15603;50.878;8.036;2023-02-21T07:28:19;145111.59;;;7.82;100.00
28354;BME280;15603;50.878;8.036;2023-02-21T07:30:46;145143.16;;;7.95;100.00
28354;BME280;15603;50.878;8.036;2023-02-21T07:33:13;145145.56;;;7.96;100.00
28354;BME280;15603;50.878;8.036;2023-02-21T07:35:41;145149.19;;;7.98;100.00
28354;BME280;15603;50.878;8.036;2023-02-21T07:38:08;145174.69;;;8.09;100.00
28354;BME280;15603;50.878;8.036;2023-02-21T07:40:35;145174.69;;;8.09;100.00
28354;BME280;15603;50.878;8.036;2023-02-21T07:43:02;145168.59;;;8.06;100.00
28354;BME280;15603;50.878;8.036;2023-02-21T07:45:29;145185.59;;;8.13;100.00
28354;BME280;15603;50.878;8.036;2023-02-21T07:47:56;145194.09;;;8.17;100.00
28354;BME280;15603;50.878;8.036;2023-02-21T07:50:23;145198.94;;;8.19;100.00
28354;BME280;15603;50.878;8.036;2023-02-21T07:52:50;145041.22;;;7.52;100.00
28354;BME280;15603;50.878;8.036;2023-02-21T07:55:17;145209.84;;;8.23;100.00
28354;BME280;15603;50.878;8.036;2023-02-21T07:57:44;145257.25;;;8.43;100.00
28354;BME280;15603;50.878;8.036;2023-02-21T08:00:12;145230.50;;;8.32;100.00
28354;BME280;15603;50.878;8.036;2023-02-21T08:02:40;145247.50;;;8.39;100.00
28354;BME280;15603;50.878;8.036;2023-02-21T08:05:07;145240.19;;;8.36;100.00
28354;BME280;15603;50.878;8.036;2023-02-21T08:07:35;145299.72;;;8.61;100.00
28354;BME280;15603;50.878;8.036;2023-02-21T08:10:03;145291.22;;;8.58;100.00
28354;BME280;15603;50.878;8.036;2023-02-21T08:12:30;145280.31;;;8.53;100.00
28354;BME280;15603;50.878;8.036;2023-02-21T08:14:57;145271.81;;;8.50;100.00
28354;BME280;15603;50.878;8.036;2023-02-21T08:17:25;145310.66;;;8.66;100.00
28354;BME280;15603;50.878;8.036;2023-02-21T08:19:52;145288.81;;;8.57;100.00
28354;BME280;15603;50.878;8.036;2023-02-21T08:22:19;145275.44;;;8.51;100.00
28354;BME280;15603;50.878;8.036;2023-02-21T08:24:49;145304.56;;;8.63;100.00
28354;BME280;15603;50.878;8.036;2023-02-21T08:27:17;145303.38;;;8.63;100.00
28354;BME280;15603;50.878;8.036;2023-02-21T08:29:50;145177.09;;;8.10;100.00
28354;BME280;15603;50.878;8.036;2023-02-21T08:32:18;145276.66;;;8.52;100.00
28354;BME280;15603;50.878;8.036;2023-02-21T08:34:46;145262.09;;;8.45;100.00
28354;BME280;15603;50.878;8.036;2023-02-21T08:37:14;145279.09;;;8.53;100.00
28354;BME280;15603;50.878;8.036;2023-02-21T08:39:50;145262.09;;;8.45;100.00
28354;BME280;15603;50.878;8.036;2023-02-21T08:42:18;145277.84;;;8.52;100.00
28354;BME280;15603;50.878;8.036;2023-02-21T08:44:46;145266.94;;;8.48;100.00
28354;BME280;15603;50.878;8.036;2023-02-21T08:47:14;145292.47;;;8.58;100.00
28354;BME280;15603;50.878;8.036;2023-02-21T08:49:46;145334.94;;;8.76;100.00
28354;BME280;15603;50.878;8.036;2023-02-21T08:52:14;145257.25;;;8.43;100.00
28354;BME280;15603;50.878;8.036;2023-02-21T08:54:43;145332.47;;;8.75;100.00
28354;BME280;15603;50.878;8.036;2023-02-21T08:57:11;145309.41;;;8.65;100.00
28354;BME280;15603;50.878;8.036;2023-02-21T08:59:40;145345.84;;;8.81;100.00
28354;BME280;15603;50.878;8.036;2023-02-21T09:02:22;145361.63;;;8.88;100.00
28354;BME280;15603;50.878;8.036;2023-02-21T09:04:53;145281.50;;;8.54;100.00
28354;BME280;15603;50.878;8.036;2023-02-21T09:07:22;145388.34;;;8.99;100.00
28354;BME280;15603;50.878;8.036;2023-02-21T09:09:49;145398.06;;;9.03;100.00
28354;BME280;15603;50.878;8.036;2023-02-21T09:12:16;145415.03;;;9.10;100.00
28354;BME280;15603;50.878;8.036;2023-02-21T09:14:44;145385.91;;;8.98;100.00
28354;BME280;15603;50.878;8.036;2023-02-21T09:17:12;145396.81;;;9.02;100.00
28354;BME280;15603;50.878;8.036;2023-02-21T09:19:39;145309.41;;;8.65;100.00
28354;BME280;15603;50.878;8.036;2023-02-21T09:22:08;145438.13;;;9.20;100.00
28354;BME280;15603;50.878;8.036;2023-02-21T09:24:36;145500.03;;;9.46;100.00
28354;BME280;15603;50.878;8.036;2023-02-21T09:27:04;145531.63;;;9.59;100.00
28354;BME280;15603;50.878;8.036;2023-02-21T09:29:34;145524.31;;;9.56;100.00
28354;BME280;15603;50.878;8.036;2023-02-21T09:32:12;145660.38;;;10.14;100.00
28354;BME280;15603;50.878;8.036;2023-02-21T09:34:40;145684.72;;;10.24;100.00
28354;BME280;15603;50.878;8.036;2023-02-21T09:37:07;145715.13;;;10.37;100.00
28354;BME280;15603;50.878;8.036;2023-02-21T09:39:36;145650.66;;;10.10;100.00
28354;BME280;15603;50.878;8.036;2023-02-21T09:42:04;145801.41;;;10.73;100.00
28354;BME280;15603;50.878;8.036;2023-02-21T09:44:31;145757.69;;;10.55;100.00
28354;BME280;15603;50.878;8.036;2023-02-21T09:47:04;145801.41;;;10.73;100.00
28354;BME280;15603;50.878;8.036;2023-02-21T09:49:38;145734.59;;;10.45;100.00
28354;BME280;15603;50.878;8.036;2023-02-21T09:52:18;145592.34;;;9.85;100.00
28354;BME280;15603;50.878;8.036;2023-02-21T09:54:53;145743.06;;;10.49;100.00
28354;BME280;15603;50.878;8.036;2023-02-21T09:57:22;145811.13;;;10.77;100.00
28354;BME280;15603;50.878;8.036;2023-02-21T09:59:49;145859.78;;;10.98;100.00
28354;BME280;15603;50.878;8.036;2023-02-21T10:02:31;145803.88;;;10.74;100.00
28354;BME280;15603;50.878;8.036;2023-02-21T10:11:06;145913.28;;;11.20;100.00
28354;BME280;15603;50.878;8.036;2023-02-21T10:13:44;145982.59;;;11.50;98.91
28354;BME280;15603;50.878;8.036;2023-02-21T10:16:36;145959.50;;;11.40;97.58
28354;BME280;15603;50.878;8.036;2023-02-21T10:19:23;145903.56;;;11.16;98.77
28354;BME280;15603;50.878;8.036;2023-02-21T10:21:53;145913.28;;;11.20;100.00
28354;BME280;15603;50.878;8.036;2023-02-21T10:24:22;145947.31;;;11.35;100.00
28354;BME280;15603;50.878;8.036;2023-02-21T10:27:08;145986.25;;;11.51;98.33
28354;BME280;15603;50.878;8.036;2023-02-21T10:29:55;145957.03;;;11.39;100.00
28354;BME280;15603;50.878;8.036;2023-02-21T10:32:24;145959.50;;;11.40;100.00
28354;BME280;15603;50.878;8.036;2023-02-21T10:34:52;146003.25;;;11.58;98.64
28354;BME280;15603;50.878;8.036;2023-02-21T10:37:43;146006.91;;;11.60;98.73
28354;BME280;15603;50.878;8.036;2023-02-21T10:40:27;146037.31;;;11.73;98.61
28354;BME280;15603;50.878;8.036;2023-02-21T10:43:08;145941.25;;;11.32;98.69
28354;BME280;15603;50.878;8.036;2023-02-21T10:45:50;145977.72;;;11.48;98.32
28354;BME280;15603;50.878;8.036;2023-02-21T10:48:24;145986.25;;;11.51;100.00
28354;BME280;15603;50.878;8.036;2023-02-21T10:51:04;146020.28;;;11.66;100.00
28354;BME280;15603;50.878;8.036;2023-02-21T10:53:34;145988.66;;;11.52;98.34
28354;BME280;15603;50.878;8.036;2023-02-21T10:58:48;146118.88;;;12.07;97.24
28354;BME280;15603;50.878;8.036;2023-02-21T11:03:49;146086.06;;;11.93;99.30
28354;BME280;15603;50.878;8.036;2023-02-21T11:06:38;146127.41;;;12.11;97.11
28354;BME280;15603;50.878;8.036;2023-02-21T11:09:44;146067.75;;;11.86;98.13
28354;BME280;15603;50.878;8.036;2023-02-21T11:14:43;146154.19;;;12.22;97.18
28354;BME280;15603;50.878;8.036;2023-02-21T11:17:20;146122.56;;;12.09;97.41
28354;BME280;15603;50.878;8.036;2023-02-21T11:22:19;146235.69;;;12.56;96.68
28354;BME280;15603;50.878;8.036;2023-02-21T11:25:02;146262.47;;;12.68;96.78
28354;BME280;15603;50.878;8.036;2023-02-21T11:27:33;146288.03;;;12.79;96.27
28354;BME280;15603;50.878;8.036;2023-02-21T11:30:15;146219.88;;;12.50;97.56
28354;BME280;15603;50.878;8.036;2023-02-21T11:32:49;146067.75;;;11.86;98.11
28354;BME280;15603;50.878;8.036;2023-02-21T11:37:56;146093.31;;;11.96;99.89
28354;BME280;15603;50.878;8.036;2023-02-21T11:40:30;146142.00;;;12.17;99.68
28354;BME280;15603;50.878;8.036;2023-02-21T11:43:19;146165.13;;;12.27;99.16
28354;BME280;15603;50.878;8.036;2023-02-21T11:46:09;146032.47;;;11.71;99.61
28354;BME280;15603;50.878;8.036;2023-02-21T11:48:44;146227.22;;;12.53;99.17
28354;BME280;15603;50.878;8.036;2023-02-21T11:51:25;146251.53;;;12.63;97.56
28354;BME280;15603;50.878;8.036;2023-02-21T11:53:53;146305.09;;;12.86;96.88
28354;BME280;15603;50.878;8.036;2023-02-21T11:59:11;146256.41;;;12.65;98.05
28354;BME280;15603;50.878;8.036;2023-02-21T12:13:27;146271.00;;;12.71;97.41
28354;BME280;15603;50.878;8.036;2023-02-21T12:26:47;146309.97;;;12.88;95.71
28354;BME280;15603;50.878;8.036;2023-02-21T12:29:25;146324.56;;;12.94;96.09
28354;BME280;15603;50.878;8.036;2023-02-21T12:46:30;146376.91;;;13.16;93.04
28354;BME280;15603;50.878;8.036;2023-02-21T12:49:04;146397.63;;;13.25;92.99
28354;BME280;15603;50.878;8.036;2023-02-21T12:51:55;146480.47;;;13.60;90.58
28354;BME280;15603;50.878;8.036;2023-02-21T12:54:37;146425.66;;;13.37;90.90
28354;BME280;15603;50.878;8.036;2023-02-21T12:57:25;146456.13;;;13.49;90.75
28354;BME280;15603;50.878;8.036;2023-02-21T13:00:19;146430.53;;;13.39;91.78
28354;BME280;15603;50.878;8.036;2023-02-21T13:02:51;146365.97;;;13.11;92.61
28354;BME280;15603;50.878;8.036;2023-02-21T13:05:29;146372.03;;;13.14;93.04
28354;BME280;15603;50.878;8.036;2023-02-21T13:08:12;146329.44;;;12.96;93.29
28354;BME280;15603;50.878;8.036;2023-02-21T13:13:54;146348.91;;;13.04;94.09
28354;BME280;15603;50.878;8.036;2023-02-21T13:16:22;146395.16;;;13.24;93.18
28354;BME280;15603;50.878;8.036;2023-02-21T13:18:54;146441.47;;;13.43;92.02
28354;BME280;15603;50.878;8.036;2023-02-21T13:23:58;146443.94;;;13.44;92.09
28354;BME280;15603;50.878;8.036;2023-02-21T13:26:51;146401.28;;;13.26;92.57
28354;BME280;15603;50.878;8.036;2023-02-21T13:29:24;146376.91;;;13.16;93.33
28354;BME280;15603;50.878;8.036;2023-02-21T13:32:02;146369.63;;;13.13;93.29
28354;BME280;15603;50.878;8.036;2023-02-21T13:34:37;146361.09;;;13.09;93.81
28354;BME280;15603;50.878;8.036;2023-02-21T13:37:13;146339.16;;;13.00;94.26
28354;BME280;15603;50.878;8.036;2023-02-21T13:39:45;146346.50;;;13.03;94.66
28354;BME280;15603;50.878;8.036;2023-02-21T13:42:25;146329.44;;;12.96;94.48
28354;BME280;15603;50.878;8.036;2023-02-21T13:45:21;146346.50;;;13.03;96.04
28354;BME280;15603;50.878;8.036;2023-02-21T13:55:35;146422.00;;;13.35;93.57
28354;BME280;15603;50.878;8.036;2023-02-21T14:03:00;146347.69;;;13.04;93.79
28354;BME280;15603;50.878;8.036;2023-02-21T14:08:13;146398.81;;;13.25;94.09
28354;BME280;15603;50.878;8.036;2023-02-21T14:10:45;146417.13;;;13.33;94.42
28354;BME280;15603;50.878;8.036;2023-02-21T14:13:33;146401.28;;;13.26;93.81
28354;BME280;15603;50.878;8.036;2023-02-21T14:21:18;146395.16;;;13.24;93.64
28354;BME280;15603;50.878;8.036;2023-02-21T14:23:56;146387.88;;;13.21;94.21
28354;BME280;15603;50.878;8.036;2023-02-21T14:26:44;146358.63;;;13.08;94.89
28354;BME280;15603;50.878;8.036;2023-02-21T14:29:35;146352.56;;;13.06;95.45
28354;BME280;15603;50.878;8.036;2023-02-21T14:37:30;146356.22;;;13.07;95.52
28354;BME280;15603;50.878;8.036;2023-02-21T14:57:33;146342.84;;;13.02;95.96
28354;BME280;15603;50.878;8.036;2023-02-21T15:00:34;146319.69;;;12.92;96.63
28354;BME280;15603;50.878;8.036;2023-02-21T15:03:20;146336.75;;;12.99;96.53
28354;BME280;15603;50.878;8.036;2023-02-21T15:08:19;146330.63;;;12.96;96.46
28354;BME280;15603;50.878;8.036;2023-02-21T15:10:48;146330.63;;;12.96;96.37
28354;BME280;15603;50.878;8.036;2023-02-21T15:13:22;146322.13;;;12.93;96.89
28354;BME280;15603;50.878;8.036;2023-02-21T15:16:04;146314.84;;;12.90;96.77
28354;BME280;15603;50.878;8.036;2023-02-21T15:18:36;146301.44;;;12.84;97.42
28354;BME280;15603;50.878;8.036;2023-02-21T15:21:16;146297.78;;;12.83;97.56
28354;BME280;15603;50.878;8.036;2023-02-21T15:23:48;146285.59;;;12.77;97.80
28354;BME280;15603;50.878;8.036;2023-02-21T15:26:30;146279.53;;;12.75;97.83
28354;BME280;15603;50.878;8.036;2023-02-21T15:29:11;146253.94;;;12.64;98.23
28354;BME280;15603;50.878;8.036;2023-02-21T15:31:41;146244.22;;;12.60;98.30
28354;BME280;15603;50.878;8.036;2023-02-21T15:34:18;146208.94;;;12.45;99.16
28354;BME280;15603;50.878;8.036;2023-02-21T15:36:49;146243.00;;;12.60;98.99
28354;BME280;15603;50.878;8.036;2023-02-21T15:39:33;146238.16;;;12.57;99.51
28354;BME280;15603;50.878;8.036;2023-02-21T15:42:04;146253.94;;;12.64;99.29